createdAt,value
2017-01-28T00:00:05.834Z,0
2017-01-28T00:00:46.324Z,0
2017-01-28T00:01:26.833Z,0
2017-01-28T00:02:07.320Z,0
2017-01-28T00:02:47.811Z,0
2017-01-28T00:03:28.298Z,0
2017-01-28T00:04:08.794Z,0
2017-01-28T00:04:49.287Z,0
2017-01-28T00:05:29.776Z,0
2017-01-28T00:06:10.270Z,0
2017-01-28T00:06:50.762Z,0
2017-01-28T00:07:31.256Z,0
2017-01-28T00:08:11.747Z,0
2017-01-28T00:08:52.260Z,0
2017-01-28T00:09:32.943Z,0
2017-01-28T00:10:13.429Z,0
2017-01-28T00:10:53.933Z,0
2017-01-28T00:11:34.419Z,0
2017-01-28T00:12:14.901Z,0
2017-01-28T00:12:55.391Z,0
2017-01-28T00:13:35.884Z,0
2017-01-28T00:14:16.381Z,0
2017-01-28T00:14:56.867Z,0
2017-01-28T00:15:37.361Z,0
2017-01-28T00:16:17.860Z,0
2017-01-28T00:16:58.352Z,0
2017-01-28T00:17:38.860Z,0
2017-01-28T00:18:19.376Z,0
2017-01-28T00:18:59.839Z,0
2017-01-28T00:19:40.338Z,0
2017-01-28T00:20:20.822Z,0
2017-01-28T00:21:01.314Z,0
2017-01-28T00:21:41.806Z,0
2017-01-28T00:22:22.300Z,0
2017-01-28T00:23:02.792Z,0
2017-01-28T00:23:43.278Z,0
2017-01-28T00:24:23.766Z,0
2017-01-28T00:25:04.256Z,0
2017-01-28T00:25:44.747Z,0
2017-01-28T00:26:25.236Z,0
2017-01-28T00:27:05.723Z,0
2017-01-28T00:27:46.214Z,0
2017-01-28T00:28:26.708Z,0
2017-01-28T00:29:07.198Z,0
2017-01-28T00:29:47.683Z,0
2017-01-28T00:30:28.173Z,0
2017-01-28T00:31:08.650Z,0
2017-01-28T00:31:49.193Z,0
2017-01-28T00:32:29.684Z,0
2017-01-28T00:33:10.171Z,0
2017-01-28T00:33:50.649Z,0
2017-01-28T00:34:31.142Z,0
2017-01-28T00:35:11.638Z,0
2017-01-28T00:35:52.125Z,0
2017-01-28T00:36:32.634Z,0
2017-01-28T00:37:13.125Z,0
2017-01-28T00:37:53.705Z,0
2017-01-28T00:38:34.194Z,0
2017-01-28T00:39:14.688Z,0
2017-01-28T00:39:55.521Z,0
2017-01-28T00:40:35.952Z,0
2017-01-28T00:41:16.440Z,0
2017-01-28T00:41:56.940Z,0
2017-01-28T00:42:37.435Z,0
2017-01-28T00:43:17.935Z,0
2017-01-28T00:43:58.427Z,0
2017-01-28T00:44:38.920Z,0
2017-01-28T00:45:19.427Z,0
2017-01-28T00:45:59.909Z,0
2017-01-28T00:46:40.395Z,0
2017-01-28T00:47:20.889Z,0
2017-01-28T00:48:01.383Z,0
2017-01-28T00:48:41.872Z,0
2017-01-28T00:49:22.386Z,0
2017-01-28T00:50:02.884Z,0
2017-01-28T00:50:43.380Z,0
2017-01-28T00:51:23.874Z,0
2017-01-28T00:52:04.354Z,0
2017-01-28T00:52:44.843Z,0
2017-01-28T00:53:25.346Z,0
2017-01-28T00:54:05.833Z,0
2017-01-28T00:54:46.332Z,0
2017-01-28T00:55:26.827Z,0
2017-01-28T00:56:07.312Z,0
2017-01-28T00:56:47.822Z,0
2017-01-28T00:57:28.314Z,0
2017-01-28T00:58:08.817Z,0
2017-01-28T00:58:49.318Z,0
2017-01-28T00:59:29.822Z,0
2017-01-28T01:00:10.308Z,0
2017-01-28T01:00:50.796Z,0
2017-01-28T01:01:31.284Z,0
2017-01-28T01:02:11.784Z,0
2017-01-28T01:02:52.272Z,0
2017-01-28T01:03:32.772Z,0
2017-01-28T01:04:13.268Z,0
2017-01-28T01:04:53.759Z,0
2017-01-28T01:05:34.245Z,0
2017-01-28T01:06:14.737Z,0
2017-01-28T01:06:55.234Z,0
2017-01-28T01:07:35.720Z,0
2017-01-28T01:08:16.215Z,0
2017-01-28T01:08:56.711Z,0
2017-01-28T01:09:37.223Z,0
2017-01-28T01:10:17.681Z,0
2017-01-28T01:10:58.416Z,0
2017-01-28T01:11:38.921Z,0
2017-01-28T01:12:19.406Z,0
2017-01-28T01:12:59.888Z,0
2017-01-28T01:13:40.384Z,0
2017-01-28T01:14:20.878Z,0
2017-01-28T01:15:01.363Z,0
2017-01-28T01:15:41.854Z,0
2017-01-28T01:16:22.357Z,0
2017-01-28T01:17:02.858Z,0
2017-01-28T01:17:43.356Z,0
2017-01-28T01:18:23.847Z,0
2017-01-28T01:19:04.329Z,0
2017-01-28T01:19:44.811Z,0
2017-01-28T01:20:25.315Z,0
2017-01-28T01:21:05.804Z,0
2017-01-28T01:21:46.290Z,0
2017-01-28T01:22:26.784Z,0
2017-01-28T01:23:07.271Z,0
2017-01-28T01:23:47.763Z,0
2017-01-28T01:24:28.250Z,0
2017-01-28T01:25:08.748Z,0
2017-01-28T01:25:49.248Z,0
2017-01-28T01:26:29.749Z,0
2017-01-28T01:27:10.246Z,0
2017-01-28T01:27:50.735Z,0
2017-01-28T01:28:31.222Z,0
2017-01-28T01:29:11.734Z,0
2017-01-28T01:29:52.245Z,0
2017-01-28T01:30:32.746Z,0
2017-01-28T01:31:13.246Z,0
2017-01-28T01:31:53.730Z,0
2017-01-28T01:32:34.224Z,0
2017-01-28T01:33:14.728Z,0
2017-01-28T01:33:55.217Z,0
2017-01-28T01:34:35.708Z,0
2017-01-28T01:35:16.207Z,0
2017-01-28T01:35:56.696Z,0
2017-01-28T01:36:37.189Z,0
2017-01-28T01:37:17.690Z,0
2017-01-28T01:37:58.181Z,0
2017-01-28T01:38:38.682Z,0
2017-01-28T01:39:19.172Z,0
2017-01-28T01:39:59.668Z,0
2017-01-28T01:40:40.167Z,0
2017-01-28T01:41:20.653Z,0
2017-01-28T01:42:01.145Z,0
2017-01-28T01:42:41.645Z,0
2017-01-28T01:43:22.130Z,0
2017-01-28T01:44:02.604Z,0
2017-01-28T01:44:43.133Z,0
2017-01-28T01:45:23.614Z,0
2017-01-28T01:46:04.099Z,0
2017-01-28T01:46:44.590Z,0
2017-01-28T01:47:25.091Z,0
2017-01-28T01:48:05.580Z,0
2017-01-28T01:48:46.082Z,0
2017-01-28T01:49:26.569Z,0
2017-01-28T01:50:07.054Z,0
2017-01-28T01:50:47.569Z,0
2017-01-28T01:51:28.069Z,0
2017-01-28T01:52:08.568Z,0
2017-01-28T01:52:49.053Z,0
2017-01-28T01:53:29.541Z,0
2017-01-28T01:54:10.020Z,0
2017-01-28T01:54:50.515Z,0
2017-01-28T01:55:31.013Z,0
2017-01-28T01:56:11.500Z,0
2017-01-28T01:56:51.988Z,0
2017-01-28T01:57:32.479Z,0
2017-01-28T01:58:12.962Z,0
2017-01-28T01:58:53.441Z,0
2017-01-28T01:59:33.945Z,0
2017-01-28T02:00:14.437Z,0
2017-01-28T02:00:54.925Z,0
2017-01-28T02:01:35.419Z,0
2017-01-28T02:02:15.905Z,0
2017-01-28T02:02:56.424Z,0
2017-01-28T02:03:36.901Z,0
2017-01-28T02:04:17.390Z,0
2017-01-28T02:04:57.879Z,0
2017-01-28T02:05:38.373Z,0
2017-01-28T02:06:18.879Z,0
2017-01-28T02:06:59.371Z,0
2017-01-28T02:07:39.864Z,0
2017-01-28T02:10:12.926Z,0
2017-01-28T02:10:53.410Z,0
2017-01-28T02:11:33.901Z,0
2017-01-28T02:12:14.389Z,0
2017-01-28T02:12:54.884Z,0
2017-01-28T02:13:35.365Z,0
2017-01-28T02:14:15.860Z,0
2017-01-28T02:14:56.344Z,0
2017-01-28T02:15:36.847Z,0
2017-01-28T02:16:17.331Z,0
2017-01-28T02:16:58.062Z,0
2017-01-28T02:17:38.546Z,0
2017-01-28T02:18:19.045Z,0
2017-01-28T02:18:59.537Z,0
2017-01-28T02:19:40.018Z,0
2017-01-28T02:20:20.506Z,0
2017-01-28T02:21:00.986Z,0
2017-01-28T02:21:41.470Z,0
2017-01-28T02:22:21.974Z,0
2017-01-28T02:23:02.476Z,0
2017-01-28T02:23:42.972Z,0
2017-01-28T02:24:23.466Z,0
2017-01-28T02:25:03.951Z,0
2017-01-28T02:25:44.431Z,0
2017-01-28T02:26:24.922Z,0
2017-01-28T02:27:05.419Z,0
2017-01-28T02:27:45.918Z,0
2017-01-28T02:28:26.422Z,0
2017-01-28T02:29:06.912Z,0
2017-01-28T02:29:47.403Z,0
2017-01-28T02:30:27.908Z,0
2017-01-28T02:31:08.400Z,0
2017-01-28T02:31:48.909Z,0
2017-01-28T02:32:29.398Z,0
2017-01-28T02:33:09.905Z,0
2017-01-28T02:33:50.396Z,0
2017-01-28T02:34:30.874Z,0
2017-01-28T02:35:11.367Z,0
2017-01-28T02:35:51.861Z,0
2017-01-28T02:36:32.353Z,0
2017-01-28T02:37:12.858Z,0
2017-01-28T02:37:53.356Z,0
2017-01-28T02:38:33.840Z,0
2017-01-28T02:39:14.334Z,0
2017-01-28T02:39:54.831Z,0
2017-01-28T02:40:35.320Z,0
2017-01-28T02:41:15.809Z,0
2017-01-28T02:41:56.303Z,0
2017-01-28T02:42:36.805Z,0
2017-01-28T02:43:17.301Z,0
2017-01-28T02:43:57.781Z,0
2017-01-28T02:44:38.295Z,0
2017-01-28T02:45:18.808Z,0
2017-01-28T02:45:59.310Z,0
2017-01-28T02:46:39.801Z,0
2017-01-28T02:47:20.303Z,0
2017-01-28T02:48:00.803Z,0
2017-01-28T02:48:41.304Z,0
2017-01-28T02:49:21.793Z,0
2017-01-28T02:50:02.287Z,0
2017-01-28T02:50:42.783Z,0
2017-01-28T02:51:23.267Z,0
2017-01-28T02:52:03.782Z,0
2017-01-28T02:52:44.244Z,0
2017-01-28T02:53:24.751Z,0
2017-01-28T02:54:05.244Z,0
2017-01-28T02:54:46.548Z,0
2017-01-28T02:55:27.058Z,0
2017-01-28T02:56:07.557Z,0
2017-01-28T02:56:48.048Z,0
2017-01-28T02:57:28.562Z,0
2017-01-28T02:58:09.061Z,0
2017-01-28T02:58:49.541Z,0
2017-01-28T02:59:30.017Z,0
2017-01-28T03:00:10.507Z,0
2017-01-28T03:00:51.009Z,0
2017-01-28T03:01:31.499Z,0
2017-01-28T03:02:11.985Z,0
2017-01-28T03:02:52.466Z,0
2017-01-28T03:03:32.998Z,0
2017-01-28T03:04:13.480Z,0
2017-01-28T03:04:53.968Z,0
2017-01-28T03:05:34.461Z,0
2017-01-28T03:06:14.951Z,0
2017-01-28T03:06:55.480Z,0
2017-01-28T03:07:35.943Z,0
2017-01-28T03:08:16.427Z,0
2017-01-28T03:08:56.910Z,0
2017-01-28T03:09:37.397Z,0
2017-01-28T03:10:17.896Z,0
2017-01-28T03:10:58.386Z,0
2017-01-28T03:11:38.873Z,0
2017-01-28T03:12:19.353Z,0
2017-01-28T03:12:59.846Z,0
2017-01-28T03:13:40.337Z,0
2017-01-28T03:14:20.828Z,0
2017-01-28T03:15:01.306Z,0
2017-01-28T03:15:41.792Z,0
2017-01-28T03:16:22.285Z,0
2017-01-28T03:17:02.789Z,0
2017-01-28T03:17:43.275Z,0
2017-01-28T03:18:23.761Z,0
2017-01-28T03:19:04.243Z,0
2017-01-28T03:19:44.725Z,0
2017-01-28T03:20:25.215Z,0
2017-01-28T03:21:05.705Z,0
2017-01-28T03:21:46.198Z,0
2017-01-28T03:22:26.685Z,0
2017-01-28T03:23:07.170Z,0
2017-01-28T03:23:47.658Z,0
2017-01-28T03:24:28.155Z,0
2017-01-28T03:25:08.641Z,0
2017-01-28T03:25:49.130Z,0
2017-01-28T03:26:29.625Z,0
2017-01-28T03:27:10.128Z,0
2017-01-28T03:27:50.610Z,0
2017-01-28T03:28:31.100Z,0
2017-01-28T03:29:11.579Z,0
2017-01-28T03:29:52.078Z,0
2017-01-28T03:30:32.573Z,0
2017-01-28T03:31:13.056Z,0
2017-01-28T03:31:53.549Z,0
2017-01-28T03:32:34.039Z,0
2017-01-28T03:33:14.534Z,0
2017-01-28T03:33:55.018Z,0
2017-01-28T03:34:35.505Z,0
2017-01-28T03:35:16.015Z,0
2017-01-28T03:35:56.473Z,0
2017-01-28T03:36:36.954Z,0
2017-01-28T03:37:17.447Z,0
2017-01-28T03:37:57.950Z,0
2017-01-28T03:38:38.441Z,0
2017-01-28T03:39:18.918Z,0
2017-01-28T03:39:59.400Z,0
2017-01-28T03:40:39.886Z,0
2017-01-28T03:41:20.376Z,0
2017-01-28T03:42:00.879Z,0
2017-01-28T03:42:41.496Z,0
2017-01-28T03:43:22.006Z,0
2017-01-28T03:44:02.483Z,0
2017-01-28T03:44:42.989Z,0
2017-01-28T03:45:23.502Z,0
2017-01-28T03:46:04.009Z,0
2017-01-28T03:46:44.498Z,0
2017-01-28T03:47:25.009Z,0
2017-01-28T03:48:05.491Z,0
2017-01-28T03:48:45.981Z,0
2017-01-28T03:49:26.472Z,0
2017-01-28T03:50:06.955Z,0
2017-01-28T03:50:47.451Z,0
2017-01-28T03:51:27.940Z,0
2017-01-28T03:52:08.453Z,0
2017-01-28T03:52:48.935Z,0
2017-01-28T03:53:29.428Z,0
2017-01-28T03:54:09.938Z,0
2017-01-28T03:54:50.428Z,0
2017-01-28T03:55:30.937Z,0
2017-01-28T03:56:11.425Z,0
2017-01-28T03:56:51.903Z,0
2017-01-28T03:57:32.395Z,0
2017-01-28T03:58:12.893Z,0
2017-01-28T03:58:53.381Z,0
2017-01-28T03:59:33.875Z,0
2017-01-28T04:00:14.409Z,0
2017-01-28T04:00:54.896Z,0
2017-01-28T04:01:35.391Z,0
2017-01-28T04:02:15.883Z,0
2017-01-28T04:02:56.374Z,0
2017-01-28T04:03:36.862Z,0
2017-01-28T04:04:17.343Z,0
2017-01-28T04:04:57.833Z,0
2017-01-28T04:05:38.339Z,0
2017-01-28T04:06:18.819Z,0
2017-01-28T04:06:59.328Z,0
2017-01-28T04:07:39.806Z,0
2017-01-28T04:08:20.295Z,0
2017-01-28T04:09:00.787Z,0
2017-01-28T04:09:41.267Z,0
2017-01-28T04:10:21.762Z,0
2017-01-28T04:11:02.283Z,0
2017-01-28T04:11:42.787Z,0
2017-01-28T04:12:23.276Z,0
2017-01-28T04:13:03.773Z,0
2017-01-28T04:13:44.536Z,0
2017-01-28T04:14:25.024Z,0
2017-01-28T04:15:05.531Z,0
2017-01-28T04:15:46.016Z,0
2017-01-28T04:16:26.507Z,0
2017-01-28T04:17:07.000Z,0
2017-01-28T04:17:47.491Z,0
2017-01-28T04:18:27.979Z,0
2017-01-28T04:19:08.473Z,0
2017-01-28T04:19:48.973Z,0
2017-01-28T04:20:29.531Z,0
2017-01-28T04:21:09.995Z,0
2017-01-28T04:21:50.485Z,0
2017-01-28T04:22:30.974Z,0
2017-01-28T04:23:11.465Z,0
2017-01-28T04:23:51.974Z,0
2017-01-28T04:24:32.470Z,0
2017-01-28T04:25:12.963Z,0
2017-01-28T04:25:53.448Z,0
2017-01-28T04:26:33.932Z,0
2017-01-28T04:27:14.418Z,0
2017-01-28T04:27:54.899Z,0
2017-01-28T04:28:35.389Z,0
2017-01-28T04:29:15.869Z,0
2017-01-28T04:29:56.367Z,0
2017-01-28T04:30:36.865Z,0
2017-01-28T04:31:17.354Z,0
2017-01-28T04:31:57.835Z,0
2017-01-28T04:32:38.318Z,0
2017-01-28T04:33:18.812Z,0
2017-01-28T04:33:59.305Z,0
2017-01-28T04:34:39.797Z,0
2017-01-28T04:35:20.277Z,0
2017-01-28T04:36:00.776Z,0
2017-01-28T04:36:41.266Z,0
2017-01-28T04:37:21.757Z,0
2017-01-28T04:38:02.246Z,0
2017-01-28T04:38:42.731Z,0
2017-01-28T04:39:23.241Z,0
2017-01-28T04:40:03.759Z,0
2017-01-28T04:40:44.251Z,0
2017-01-28T04:41:24.753Z,0
2017-01-28T04:42:05.235Z,0
2017-01-28T04:42:45.749Z,0
2017-01-28T04:43:26.230Z,0
2017-01-28T04:44:06.718Z,0
2017-01-28T04:44:47.199Z,0
2017-01-28T04:45:27.680Z,0
2017-01-28T04:46:08.173Z,0
2017-01-28T04:46:48.654Z,0
2017-01-28T04:47:29.154Z,0
2017-01-28T04:48:09.643Z,0
2017-01-28T04:48:50.134Z,0
2017-01-28T04:49:30.641Z,0
2017-01-28T04:50:11.139Z,0
2017-01-28T04:50:51.633Z,0
2017-01-28T04:51:32.130Z,0
2017-01-28T04:52:12.621Z,0
2017-01-28T04:52:53.123Z,0
2017-01-28T04:53:33.607Z,0
2017-01-28T04:54:14.092Z,0
2017-01-28T04:54:54.600Z,0
2017-01-28T04:55:35.087Z,0
2017-01-28T04:56:15.568Z,0
2017-01-28T04:56:56.089Z,0
2017-01-28T04:57:36.578Z,0
2017-01-28T04:58:17.077Z,0
2017-01-28T04:58:57.581Z,0
2017-01-28T04:59:38.078Z,0
2017-01-28T05:00:18.565Z,0
2017-01-28T05:00:59.056Z,0
2017-01-28T05:01:39.542Z,0
2017-01-28T05:02:20.035Z,0
2017-01-28T05:03:00.523Z,0
2017-01-28T05:03:41.009Z,0
2017-01-28T05:04:21.496Z,0
2017-01-28T05:05:02.001Z,0
2017-01-28T05:05:42.491Z,0
2017-01-28T05:06:22.976Z,0
2017-01-28T05:07:03.470Z,0
2017-01-28T05:07:43.966Z,0
2017-01-28T05:08:24.460Z,0
2017-01-28T05:09:05.189Z,0
2017-01-28T05:09:45.711Z,0
2017-01-28T05:10:26.184Z,0
2017-01-28T05:11:06.675Z,0
2017-01-28T05:11:47.170Z,0
2017-01-28T05:12:27.661Z,0
2017-01-28T05:13:08.173Z,0
2017-01-28T05:13:48.670Z,0
2017-01-28T05:14:29.165Z,0
2017-01-28T05:15:09.652Z,0
2017-01-28T05:15:50.160Z,0
2017-01-28T05:16:30.652Z,0
2017-01-28T05:17:11.166Z,0
2017-01-28T05:17:51.657Z,0
2017-01-28T05:18:32.145Z,0
2017-01-28T05:19:12.664Z,0
2017-01-28T05:19:53.163Z,0
2017-01-28T05:20:33.652Z,0
2017-01-28T05:21:14.135Z,0
2017-01-28T05:21:54.624Z,0
2017-01-28T05:22:35.109Z,0
2017-01-28T05:23:15.613Z,0
2017-01-28T05:23:56.099Z,0
2017-01-28T05:24:36.609Z,0
2017-01-28T05:25:17.096Z,0
2017-01-28T05:25:57.585Z,0
2017-01-28T05:26:38.078Z,0
2017-01-28T05:27:18.572Z,0
2017-01-28T05:27:59.058Z,0
2017-01-28T05:28:39.549Z,0
2017-01-28T05:29:20.053Z,0
2017-01-28T05:30:00.538Z,0
2017-01-28T05:30:41.031Z,0
2017-01-28T05:31:21.538Z,0
2017-01-28T05:32:02.022Z,0
2017-01-28T05:32:42.509Z,0
2017-01-28T05:33:23.011Z,0
2017-01-28T05:34:03.498Z,0
2017-01-28T05:34:43.993Z,0
2017-01-28T05:35:24.488Z,0
2017-01-28T05:36:04.980Z,0
2017-01-28T05:36:45.489Z,0
2017-01-28T05:37:25.988Z,0
2017-01-28T05:38:06.492Z,0
2017-01-28T05:38:46.981Z,0
2017-01-28T05:39:27.796Z,0
2017-01-28T05:40:08.232Z,0
2017-01-28T05:40:48.740Z,0
2017-01-28T05:41:29.241Z,0
2017-01-28T05:42:09.736Z,0
2017-01-28T05:42:50.219Z,0
2017-01-28T05:43:30.708Z,0
2017-01-28T05:44:11.210Z,0
2017-01-28T05:44:51.704Z,0
2017-01-28T05:45:33.885Z,0
2017-01-28T05:46:13.553Z,0
2017-01-28T05:46:54.060Z,0
2017-01-28T05:47:34.550Z,0
2017-01-28T05:48:15.056Z,0
2017-01-28T05:48:55.539Z,0
2017-01-28T05:49:36.018Z,0
2017-01-28T05:50:16.509Z,0
2017-01-28T05:50:56.995Z,0
2017-01-28T05:51:37.505Z,0
2017-01-28T05:52:17.991Z,0
2017-01-28T05:52:58.474Z,0
2017-01-28T05:53:38.962Z,0
2017-01-28T05:54:19.453Z,0
2017-01-28T05:54:59.947Z,0
2017-01-28T05:55:40.435Z,0
2017-01-28T05:56:20.927Z,0
2017-01-28T05:57:01.405Z,0
2017-01-28T05:57:41.898Z,0
2017-01-28T05:58:22.394Z,0
2017-01-28T05:59:02.890Z,0
2017-01-28T05:59:43.426Z,0
2017-01-28T06:00:23.913Z,0
2017-01-28T06:01:04.403Z,0
2017-01-28T06:03:22.292Z,0
2017-01-28T06:04:02.782Z,0
2017-01-28T06:04:43.273Z,0
2017-01-28T06:05:23.775Z,0
2017-01-28T06:06:04.268Z,0
2017-01-28T06:06:44.771Z,0
2017-01-28T06:07:25.258Z,0
2017-01-28T06:08:05.748Z,0
2017-01-28T06:08:46.228Z,0
2017-01-28T06:09:26.740Z,0
2017-01-28T06:10:07.222Z,0
2017-01-28T06:10:47.781Z,0
2017-01-28T06:11:28.189Z,0
2017-01-28T06:12:08.673Z,0
2017-01-28T06:12:49.155Z,0
2017-01-28T06:13:29.644Z,0
2017-01-28T06:14:10.120Z,0
2017-01-28T06:14:50.599Z,0
2017-01-28T06:15:31.153Z,0
2017-01-28T06:16:11.662Z,0
2017-01-28T06:16:52.180Z,0
2017-01-28T06:17:33.485Z,0
2017-01-28T06:18:13.976Z,0
2017-01-28T06:18:54.458Z,0
2017-01-28T06:19:34.964Z,0
2017-01-28T06:20:15.451Z,0
2017-01-28T06:20:55.939Z,0
2017-01-28T06:21:36.442Z,0
2017-01-28T06:22:16.928Z,0
2017-01-28T06:22:57.424Z,0
2017-01-28T06:23:37.918Z,0
2017-01-28T06:24:18.414Z,0
2017-01-28T06:24:58.894Z,0
2017-01-28T06:25:39.377Z,0
2017-01-28T06:26:19.887Z,0
2017-01-28T06:27:00.373Z,0
2017-01-28T06:27:40.860Z,0
2017-01-28T06:28:21.348Z,0
2017-01-28T06:29:02.538Z,0
2017-01-28T06:29:44.181Z,0
2017-01-28T06:30:23.840Z,0
2017-01-28T06:31:04.319Z,0
2017-01-28T06:31:44.819Z,0
2017-01-28T06:32:25.324Z,0
2017-01-28T06:33:05.812Z,0
2017-01-28T06:33:46.309Z,0
2017-01-28T06:34:26.795Z,0
2017-01-28T06:35:07.282Z,0
2017-01-28T06:35:47.771Z,0
2017-01-28T06:36:28.254Z,0
2017-01-28T06:37:08.737Z,0
2017-01-28T06:37:49.349Z,4
2017-01-28T06:38:29.832Z,4
2017-01-28T06:39:10.316Z,4
2017-01-28T06:39:50.805Z,4
2017-01-28T06:40:31.283Z,0
2017-01-28T06:41:11.810Z,0
2017-01-28T06:41:52.338Z,4
2017-01-28T06:42:32.832Z,4
2017-01-28T06:43:13.325Z,4
2017-01-28T06:43:53.824Z,4
2017-01-28T06:44:34.301Z,4
2017-01-28T06:45:14.823Z,4
2017-01-28T06:45:55.318Z,8
2017-01-28T06:46:35.820Z,4
2017-01-28T06:47:16.308Z,8
2017-01-28T06:47:56.823Z,4
2017-01-28T06:48:37.312Z,8
2017-01-28T06:49:17.792Z,12
2017-01-28T06:49:58.287Z,8
2017-01-28T06:50:38.776Z,12
2017-01-28T06:51:19.266Z,12
2017-01-28T06:51:59.747Z,12
2017-01-28T06:52:40.265Z,16
2017-01-28T06:53:20.737Z,16
2017-01-28T06:54:01.230Z,20
2017-01-28T06:54:41.744Z,20
2017-01-28T06:55:22.210Z,20
2017-01-28T06:56:02.713Z,24
2017-01-28T06:56:43.196Z,24
2017-01-28T06:57:23.703Z,28
2017-01-28T06:58:04.195Z,28
2017-01-28T06:58:44.707Z,28
2017-01-28T06:59:25.192Z,36
2017-01-28T07:00:05.687Z,36
2017-01-28T07:00:46.200Z,40
2017-01-28T07:01:26.707Z,40
2017-01-28T07:02:07.198Z,44
2017-01-28T07:02:47.702Z,48
2017-01-28T07:03:28.192Z,52
2017-01-28T07:04:08.680Z,56
2017-01-28T07:04:49.158Z,56
2017-01-28T07:05:29.673Z,60
2017-01-28T07:06:10.157Z,64
2017-01-28T07:06:50.641Z,68
2017-01-28T07:07:31.154Z,72
2017-01-28T07:08:11.633Z,76
2017-01-28T07:08:52.140Z,76
2017-01-28T07:09:32.632Z,84
2017-01-28T07:10:13.120Z,88
2017-01-28T07:10:53.600Z,92
2017-01-28T07:11:34.101Z,100
2017-01-28T07:12:14.587Z,104
2017-01-28T07:12:55.082Z,108
2017-01-28T07:13:35.565Z,116
2017-01-28T07:14:16.054Z,120
2017-01-28T07:14:56.558Z,124
2017-01-28T07:15:37.045Z,128
2017-01-28T07:16:17.534Z,136
2017-01-28T07:16:58.036Z,144
2017-01-28T07:17:38.651Z,148
2017-01-28T07:18:19.278Z,156
2017-01-28T07:19:01.296Z,160
2017-01-28T07:19:41.781Z,168
2017-01-28T07:20:22.266Z,172
2017-01-28T07:21:02.750Z,176
2017-01-28T07:21:43.231Z,184
2017-01-28T07:22:23.751Z,192
2017-01-28T07:23:04.220Z,200
2017-01-28T07:23:44.708Z,208
2017-01-28T07:24:25.221Z,216
2017-01-28T07:25:05.709Z,224
2017-01-28T07:25:46.202Z,232
2017-01-28T07:26:26.700Z,244
2017-01-28T07:27:07.199Z,248
2017-01-28T07:27:47.716Z,260
2017-01-28T07:28:28.218Z,264
2017-01-28T07:29:08.715Z,276
2017-01-28T07:29:49.212Z,284
2017-01-28T07:30:29.701Z,296
2017-01-28T07:31:10.186Z,304
2017-01-28T07:31:50.669Z,312
2017-01-28T07:32:31.158Z,316
2017-01-28T07:33:11.654Z,324
2017-01-28T07:33:52.151Z,336
2017-01-28T07:34:32.631Z,348
2017-01-28T07:35:13.117Z,360
2017-01-28T07:35:53.611Z,372
2017-01-28T07:36:34.316Z,384
2017-01-28T07:37:14.800Z,396
2017-01-28T07:37:55.280Z,412
2017-01-28T07:38:35.764Z,424
2017-01-28T07:39:16.256Z,432
2017-01-28T07:39:56.751Z,448
2017-01-28T07:40:37.244Z,456
2017-01-28T07:41:17.731Z,472
2017-01-28T07:41:58.222Z,484
2017-01-28T07:42:38.723Z,500
2017-01-28T07:43:19.235Z,512
2017-01-28T07:43:59.720Z,524
2017-01-28T07:44:40.204Z,532
2017-01-28T07:45:20.687Z,540
2017-01-28T07:46:01.199Z,552
2017-01-28T07:46:41.686Z,560
2017-01-28T07:47:22.195Z,564
2017-01-28T07:48:02.683Z,572
2017-01-28T07:48:43.168Z,580
2017-01-28T07:49:23.651Z,588
2017-01-28T07:50:04.169Z,600
2017-01-28T07:50:44.659Z,616
2017-01-28T07:51:25.160Z,628
2017-01-28T07:52:05.659Z,636
2017-01-28T07:52:46.162Z,656
2017-01-28T07:53:26.655Z,664
2017-01-28T07:54:07.164Z,676
2017-01-28T07:54:47.643Z,688
2017-01-28T07:55:28.138Z,700
2017-01-28T07:56:08.637Z,716
2017-01-28T07:56:49.121Z,732
2017-01-28T07:57:29.629Z,740
2017-01-28T08:00:02.759Z,780
2017-01-28T08:00:43.254Z,788
2017-01-28T08:01:23.774Z,812
2017-01-28T08:02:04.252Z,836
2017-01-28T08:02:44.735Z,848
2017-01-28T08:03:25.242Z,848
2017-01-28T08:04:05.727Z,844
2017-01-28T08:04:46.221Z,848
2017-01-28T08:05:26.712Z,872
2017-01-28T08:06:07.216Z,888
2017-01-28T08:06:47.714Z,908
2017-01-28T08:07:28.212Z,916
2017-01-28T08:08:08.714Z,912
2017-01-28T08:08:49.206Z,912
2017-01-28T08:09:29.676Z,916
2017-01-28T08:10:10.165Z,940
2017-01-28T08:10:50.662Z,964
2017-01-28T08:11:31.159Z,980
2017-01-28T08:12:11.641Z,992
2017-01-28T08:12:52.161Z,1016
2017-01-28T08:13:32.646Z,1032
2017-01-28T08:14:13.133Z,1048
2017-01-28T08:14:53.614Z,1064
2017-01-28T08:15:34.107Z,1072
2017-01-28T08:16:14.603Z,1084
2017-01-28T08:16:55.095Z,1084
2017-01-28T08:17:35.588Z,1092
2017-01-28T08:18:16.100Z,1088
2017-01-28T08:18:56.598Z,1096
2017-01-28T08:19:37.089Z,1100
2017-01-28T08:20:17.598Z,1120
2017-01-28T08:20:58.101Z,1132
2017-01-28T08:21:38.604Z,1148
2017-01-28T08:22:19.090Z,1160
2017-01-28T08:22:59.625Z,1172
2017-01-28T08:23:40.091Z,1184
2017-01-28T08:24:20.592Z,1192
2017-01-28T08:25:01.088Z,1184
2017-01-28T08:25:41.601Z,1168
2017-01-28T08:26:22.090Z,1152
2017-01-28T08:27:02.581Z,1136
2017-01-28T08:27:43.132Z,1148
2017-01-28T08:28:23.640Z,1144
2017-01-28T08:29:04.145Z,1148
2017-01-28T08:29:44.633Z,1148
2017-01-28T08:30:25.127Z,1160
2017-01-28T08:31:05.634Z,1168
2017-01-28T08:31:46.119Z,1184
2017-01-28T08:32:26.610Z,1192
2017-01-28T08:33:07.101Z,1212
2017-01-28T08:33:47.594Z,1232
2017-01-28T08:34:28.084Z,1236
2017-01-28T08:35:08.587Z,1248
2017-01-28T08:35:49.074Z,1264
2017-01-28T08:36:29.583Z,1276
2017-01-28T08:37:10.072Z,1284
2017-01-28T08:37:50.561Z,1292
2017-01-28T08:38:31.053Z,1300
2017-01-28T08:39:11.535Z,1308
2017-01-28T08:39:52.031Z,1316
2017-01-28T08:40:32.518Z,1320
2017-01-28T08:41:13.016Z,1312
2017-01-28T08:41:53.491Z,1316
2017-01-28T08:42:33.993Z,1324
2017-01-28T08:43:14.486Z,1328
2017-01-28T08:43:54.963Z,1328
2017-01-28T08:44:35.452Z,1328
2017-01-28T08:45:15.950Z,1316
2017-01-28T08:45:56.440Z,1328
2017-01-28T08:46:36.929Z,1336
2017-01-28T08:47:17.425Z,1324
2017-01-28T08:47:57.920Z,1316
2017-01-28T08:48:38.422Z,1324
2017-01-28T08:49:18.946Z,1328
2017-01-28T08:49:59.447Z,1336
2017-01-28T08:50:39.941Z,1344
2017-01-28T08:51:20.436Z,1352
2017-01-28T08:52:00.921Z,1360
2017-01-28T08:52:41.411Z,1372
2017-01-28T08:53:21.916Z,1392
2017-01-28T08:54:02.404Z,1400
2017-01-28T08:54:42.893Z,1400
2017-01-28T08:55:23.397Z,1408
2017-01-28T08:56:03.880Z,1408
2017-01-28T08:56:44.366Z,1408
2017-01-28T08:57:24.853Z,1424
2017-01-28T08:58:05.361Z,1424
2017-01-28T08:58:45.859Z,1432
2017-01-28T08:59:26.366Z,1436
2017-01-28T09:00:06.846Z,1448
2017-01-28T09:00:47.334Z,1452
2017-01-28T09:01:27.821Z,1472
2017-01-28T09:02:08.319Z,1488
2017-01-28T09:02:48.807Z,1504
2017-01-28T09:03:29.299Z,1488
2017-01-28T09:04:09.798Z,1496
2017-01-28T09:04:50.304Z,1492
2017-01-28T09:05:30.803Z,1496
2017-01-28T09:06:11.292Z,1500
2017-01-28T09:06:51.779Z,1484
2017-01-28T09:07:32.263Z,1480
2017-01-28T09:08:13.008Z,1488
2017-01-28T09:08:53.493Z,1504
2017-01-28T09:09:33.998Z,1508
2017-01-28T09:10:14.495Z,1516
2017-01-28T09:10:55.002Z,1524
2017-01-28T09:11:35.495Z,1528
2017-01-28T09:12:16.003Z,1532
2017-01-28T09:12:56.520Z,1536
2017-01-28T09:13:37.006Z,1532
2017-01-28T09:14:17.498Z,1528
2017-01-28T09:14:57.999Z,1524
2017-01-28T09:15:38.517Z,1516
2017-01-28T09:16:19.002Z,1516
2017-01-28T09:16:59.484Z,1528
2017-01-28T09:17:39.970Z,1536
2017-01-28T09:18:20.469Z,1536
2017-01-28T09:19:00.958Z,1544
2017-01-28T09:19:41.448Z,1556
2017-01-28T09:20:21.934Z,1564
2017-01-28T09:21:02.427Z,1572
2017-01-28T09:21:42.905Z,1580
2017-01-28T09:22:23.394Z,1580
2017-01-28T09:23:03.895Z,1584
2017-01-28T09:23:44.383Z,1596
2017-01-28T09:24:24.885Z,1596
2017-01-28T09:25:05.378Z,1584
2017-01-28T09:25:45.890Z,1584
2017-01-28T09:26:26.387Z,1580
2017-01-28T09:27:06.886Z,1580
2017-01-28T09:27:47.373Z,1568
2017-01-28T09:28:27.887Z,1548
2017-01-28T09:29:08.373Z,1536
2017-01-28T09:29:48.860Z,1524
2017-01-28T09:30:29.357Z,1492
2017-01-28T09:31:09.846Z,1484
2017-01-28T09:31:50.334Z,1492
2017-01-28T09:32:30.819Z,1492
2017-01-28T09:33:11.330Z,1500
2017-01-28T09:33:51.817Z,1500
2017-01-28T09:34:32.331Z,1500
2017-01-28T09:35:12.817Z,1504
2017-01-28T09:35:53.325Z,1500
2017-01-28T09:36:33.817Z,1512
2017-01-28T09:37:14.301Z,1500
2017-01-28T09:37:54.797Z,1500
2017-01-28T09:38:35.286Z,1500
2017-01-28T09:39:15.775Z,1508
2017-01-28T09:39:56.257Z,1492
2017-01-28T09:40:36.747Z,1488
2017-01-28T09:41:17.232Z,1508
2017-01-28T09:41:57.718Z,1508
2017-01-28T09:42:38.218Z,1492
2017-01-28T09:43:18.714Z,1504
2017-01-28T09:43:59.231Z,1480
2017-01-28T09:44:39.727Z,1472
2017-01-28T09:45:20.217Z,1480
2017-01-28T09:46:00.701Z,1460
2017-01-28T09:46:41.189Z,1440
2017-01-28T09:47:21.672Z,1432
2017-01-28T09:48:02.164Z,1460